Time;durP1;ratioP1;P1;durP2;ratioP2;P2;SDS_P1;SDS_P2;PMS_P1;PMS_P2;Temp;Humidity;BMP_temperature;BMP_pressure;BME280_temperature;BME280_humidity;BME280_pressure;Samples;Min_cycle;Max_cycle;Signal;HPM_P1;HPM_P2
2021/10/02 00:37:42;;;;;;;1.27;1.20;;;15.70;83.70;;;;;;4989551;28;20224;-83
2021/10/02 00:45:41;;;;;;;1.30;0.63;;;15.60;83.70;;;;;;4984981;28;20205;-84
2021/10/02 00:48:10;;;;;;;0.10;0.10;;;15.50;83.70;;;;;;4987731;28;20225;-84
2021/10/02 00:50:38;;;;;;;1.17;1.07;;;15.40;83.90;;;;;;4986687;28;20232;-84
2021/10/02 00:53:05;;;;;;;0.47;0.47;;;15.30;84.10;;;;;;4997298;28;20220;-84
2021/10/02 00:55:32;;;;;;;1.10;1.07;;;15.30;84.30;;;;;;4993563;28;20244;-84
2021/10/02 00:57:59;;;;;;;0.80;0.80;;;15.20;84.60;;;;;;4982548;28;20364;-84
2021/10/02 01:00:27;;;;;;;0.60;0.60;;;15.20;84.70;;;;;;4979229;28;20221;-84
2021/10/02 01:03:14;;;;;;;0.20;0.20;;;15.10;84.90;;;;;;4989774;28;20251;-84
2021/10/02 01:06:12;;;;;;;1.53;0.77;;;15.10;85.30;;;;;;5010778;28;20316;-84
2021/10/02 01:09:11;;;;;;;0.83;0.40;;;15.20;85.40;;;;;;4996097;28;20814;-84
2021/10/02 01:12:08;;;;;;;7.03;1.10;;;15.20;85.40;;;;;;4993127;28;20240;-85
2021/10/02 01:14:48;;;;;;;1.03;0.73;;;15.30;85.30;;;;;;4987020;28;20228;-84
2021/10/02 01:17:26;;;;;;;0.53;0.53;;;15.30;85.20;;;;;;4985630;28;20728;-85
2021/10/02 01:20:02;;;;;;;0.93;0.60;;;15.30;85.20;;;;;;4984755;28;20213;-84
2021/10/02 01:22:48;;;;;;;0.40;0.40;;;15.20;85.30;;;;;;5003633;28;20209;-84
2021/10/02 01:25:23;;;;;;;0.40;0.40;;;15.20;85.40;;;;;;4999048;28;20203;-84
2021/10/02 01:28:03;;;;;;;0.67;0.67;;;15.20;85.50;;;;;;4986868;28;20543;-84
2021/10/02 01:33:33;;;;;;;0.60;0.60;;;15.20;85.90;;;;;;4987929;28;20637;-84
2021/10/02 01:36:08;;;;;;;0.77;0.77;;;15.10;86.00;;;;;;4994193;28;20246;-84
2021/10/02 01:49:53;;;;;;;0.30;0.30;;;15.00;85.90;;;;;;4992245;28;20224;-85
2021/10/02 01:52:33;;;;;;;0.80;0.80;;;15.00;85.90;;;;;;4991884;28;20220;-84
2021/10/02 01:55:01;;;;;;;0.67;0.67;;;15.00;85.90;;;;;;5000700;28;20208;-84
2021/10/02 01:57:34;;;;;;;0.77;0.40;;;15.00;86.00;;;;;;4989908;28;20248;-84
2021/10/02 02:00:04;;;;;;;0.83;0.83;;;15.00;85.90;;;;;;4981691;28;20216;-84
2021/10/02 02:02:34;;;;;;;0.70;0.70;;;14.90;85.70;;;;;;4987051;28;20225;-84
2021/10/02 02:05:07;;;;;;;1.53;1.43;;;14.90;85.70;;;;;;4987338;28;20213;-83
2021/10/02 02:07:37;;;;;;;0.83;0.63;;;14.90;85.70;;;;;;4978156;28;20324;-84
2021/10/02 02:10:06;;;;;;;0.87;0.87;;;14.90;85.90;;;;;;4978740;28;20221;-84
2021/10/02 02:12:34;;;;;;;4.33;0.70;;;14.80;86.50;;;;;;4990446;28;20228;-83
2021/10/02 02:15:08;;;;;;;0.57;0.57;;;14.80;85.90;;;;;;4994152;28;20233;-84
2021/10/02 02:17:43;;;;;;;0.73;0.73;;;14.70;85.80;;;;;;4993957;28;20236;-84
2021/10/02 02:20:15;;;;;;;0.10;0.10;;;14.70;86.20;;;;;;4993999;28;20223;-85
2021/10/02 02:22:42;;;;;;;1.37;1.27;;;14.60;86.20;;;;;;5004440;28;20224;-85
2021/10/02 02:25:10;;;;;;;0.93;0.83;;;14.60;86.40;;;;;;4991991;28;20221;-83
2021/10/02 02:27:37;;;;;;;0.40;0.40;;;14.70;86.60;;;;;;4996702;28;20208;-84
2021/10/02 02:30:04;;;;;;;0.20;0.20;;;14.70;86.60;;;;;;4985294;28;20450;-83
2021/10/02 02:32:32;;;;;;;0.30;0.30;;;14.80;86.50;;;;;;4993685;28;20244;-84
2021/10/02 02:35:00;;;;;;;0.20;0.20;;;14.80;86.40;;;;;;4994892;28;20220;-83
2021/10/02 02:37:27;;;;;;;0.33;0.33;;;14.80;86.20;;;;;;4988068;28;20258;-84
2021/10/02 02:39:54;;;;;;;1.03;1.03;;;14.90;86.00;;;;;;4980982;28;20218;-83
2021/10/02 02:42:22;;;;;;;0.67;0.40;;;14.90;85.90;;;;;;4987852;28;20221;-83
2021/10/02 02:44:49;;;;;;;0.40;0.40;;;14.80;85.80;;;;;;4985872;28;20688;-84
2021/10/02 02:47:22;;;;;;;0.70;0.70;;;14.80;85.80;;;;;;4994412;28;20224;-84
2021/10/02 02:50:06;;;;;;;0.90;0.90;;;14.80;85.90;;;;;;4988100;28;20219;-85
2021/10/02 02:52:51;;;;;;;0.87;0.87;;;14.80;85.80;;;;;;4988769;28;20212;-84
2021/10/02 02:55:25;;;;;;;0.20;0.20;;;14.70;85.80;;;;;;4999515;28;20255;-84
2021/10/02 02:58:02;;;;;;;3.83;0.70;;;14.70;85.80;;;;;;4994531;28;20275;-83
2021/10/02 03:00:30;;;;;;;0.77;0.77;;;14.70;85.80;;;;;;4990757;28;20536;-83
2021/10/02 03:03:06;;;;;;;1.07;0.93;;;14.70;85.80;;;;;;4992587;28;20217;-83
2021/10/02 03:05:39;;;;;;;2.63;0.70;;;14.60;85.70;;;;;;4988369;28;20239;-85
2021/10/02 03:08:12;;;;;;;0.83;0.83;;;14.60;85.70;;;;;;4980351;28;20720;-83
2021/10/02 03:10:45;;;;;;;1.40;0.80;;;14.60;85.70;;;;;;4986773;28;20208;-84
2021/10/02 03:13:16;;;;;;;0.33;0.33;;;14.60;85.70;;;;;;4988538;28;20213;-83
2021/10/02 03:15:46;;;;;;;1.40;1.13;;;14.60;85.70;;;;;;4988750;28;20217;-83
2021/10/02 03:18:15;;;;;;;0.90;0.90;;;14.60;85.70;;;;;;4997988;28;20224;-84
2021/10/02 03:20:48;;;;;;;2.00;1.30;;;14.60;85.70;;;;;;4986652;28;20208;-84
2021/10/02 03:23:18;;;;;;;2.53;0.70;;;14.50;85.70;;;;;;4985134;28;20536;-84
2021/10/02 03:25:46;;;;;;;0.50;0.50;;;14.50;85.60;;;;;;4995098;28;20647;-84
2021/10/02 03:28:14;;;;;;;1.17;1.17;;;14.50;85.70;;;;;;4999797;28;20216;-84
2021/10/02 03:30:42;;;;;;;0.20;0.20;;;14.40;85.60;;;;;;4988162;28;20217;-84
2021/10/02 03:33:13;;;;;;;0.47;0.47;;;14.30;85.50;;;;;;4985691;28;20221;-84
2021/10/02 03:35:41;;;;;;;0.50;0.50;;;14.30;85.50;;;;;;4994629;28;20649;-84
2021/10/02 03:38:08;;;;;;;0.60;0.60;;;14.20;85.80;;;;;;4988185;28;20232;-83
2021/10/02 03:40:35;;;;;;;1.50;1.40;;;14.20;85.90;;;;;;4988383;28;20217;-84
2021/10/02 03:43:03;;;;;;;0.53;0.53;;;14.20;86.00;;;;;;4987129;28;20239;-83
2021/10/02 03:45:30;;;;;;;0.50;0.50;;;14.20;86.20;;;;;;4985193;28;20221;-84
2021/10/02 03:47:57;;;;;;;0.93;0.87;;;14.20;86.30;;;;;;4986580;28;20225;-83
2021/10/02 03:50:25;;;;;;;1.10;1.10;;;14.20;86.40;;;;;;4986489;28;20221;-83
2021/10/02 03:52:52;;;;;;;1.13;0.77;;;14.30;86.50;;;;;;4986188;28;20287;-84
2021/10/02 03:55:19;;;;;;;1.00;1.00;;;14.30;86.40;;;;;;5002554;28;20227;-84
2021/10/02 03:57:46;;;;;;;0.37;0.37;;;14.30;86.30;;;;;;4991570;28;20335;-83
2021/10/02 04:00:14;;;;;;;0.37;0.37;;;14.40;86.30;;;;;;5008608;28;20209;-84
2021/10/02 04:02:42;;;;;;;0.50;0.50;;;14.40;86.20;;;;;;4996297;28;20217;-83
2021/10/02 04:05:10;;;;;;;0.27;0.27;;;14.40;86.10;;;;;;4988688;28;20538;-84
2021/10/02 04:07:37;;;;;;;0.80;0.80;;;14.40;86.10;;;;;;4992751;28;20647;-84
2021/10/02 04:10:08;;;;;;;0.50;0.50;;;14.40;86.10;;;;;;4996305;28;20221;-84
2021/10/02 04:12:35;;;;;;;0.43;0.43;;;14.40;86.10;;;;;;4999486;28;20548;-84
2021/10/02 04:15:03;;;;;;;0.53;0.53;;;14.40;86.20;;;;;;4996282;28;20235;-84
2021/10/02 04:17:30;;;;;;;3.13;1.17;;;14.50;86.30;;;;;;4993729;28;20554;-84
2021/10/02 04:19:57;;;;;;;1.00;1.00;;;14.50;86.30;;;;;;4992960;28;20224;-83
2021/10/02 04:22:24;;;;;;;3.33;1.83;;;14.50;86.30;;;;;;4988377;28;20213;-84
2021/10/02 04:24:52;;;;;;;0.53;0.53;;;14.50;86.30;;;;;;4998417;28;20227;-84
2021/10/02 04:27:19;;;;;;;0.50;0.50;;;14.50;86.30;;;;;;4988481;28;20225;-84
2021/10/02 04:29:46;;;;;;;5.03;1.13;;;14.40;86.40;;;;;;4986720;28;20645;-85
2021/10/02 04:32:13;;;;;;;0.13;0.13;;;14.40;86.60;;;;;;4995859;28;20209;-84
2021/10/02 04:34:40;;;;;;;1.20;1.20;;;14.30;86.80;;;;;;4994932;28;20226;-84
2021/10/02 04:37:08;;;;;;;0.63;0.63;;;14.30;87.00;;;;;;4986812;28;20239;-84
2021/10/02 04:39:35;;;;;;;2.20;1.23;;;14.30;87.20;;;;;;4995498;28;20220;-84
2021/10/02 04:42:04;;;;;;;0.47;0.47;;;14.30;87.20;;;;;;4990261;28;20216;-84
2021/10/02 04:44:33;;;;;;;1.63;1.53;;;14.30;87.20;;;;;;4983614;28;20714;-84
2021/10/02 04:47:00;;;;;;;2.57;1.00;;;14.30;87.30;;;;;;4986693;28;20684;-84
2021/10/02 04:49:27;;;;;;;0.87;0.87;;;14.30;87.30;;;;;;4979969;28;20228;-84
2021/10/02 04:51:54;;;;;;;0.73;0.73;;;14.30;87.40;;;;;;4987346;28;20233;-85
2021/10/02 04:54:21;;;;;;;1.47;1.37;;;14.30;87.50;;;;;;4988484;28;20232;-84
2021/10/02 04:56:48;;;;;;;0.83;0.83;;;14.30;87.50;;;;;;5000959;28;20554;-84
2021/10/02 04:59:16;;;;;;;2.47;1.33;;;14.40;87.40;;;;;;4992713;28;20236;-84
2021/10/02 05:01:43;;;;;;;1.47;0.57;;;14.30;87.40;;;;;;4996914;28;20213;-84
2021/10/02 05:04:10;;;;;;;0.30;0.30;;;14.30;87.50;;;;;;4987285;28;20288;-83
2021/10/02 05:06:38;;;;;;;0.53;0.53;;;14.30;87.70;;;;;;4998774;28;20224;-83
2021/10/02 05:09:07;;;;;;;0.57;0.43;;;14.30;87.70;;;;;;4979591;28;20267;-84
2021/10/02 05:11:34;;;;;;;0.60;0.60;;;14.30;87.60;;;;;;4978908;28;20690;-84
2021/10/02 05:14:01;;;;;;;2.20;2.07;;;14.30;87.50;;;;;;4985375;28;20213;-85
2021/10/02 05:16:29;;;;;;;2.30;1.17;;;14.30;87.40;;;;;;4990227;28;20255;-84
2021/10/02 05:18:56;;;;;;;1.63;1.50;;;14.20;87.40;;;;;;4986812;28;20587;-84
2021/10/02 05:21:23;;;;;;;1.70;0.30;;;14.20;87.50;;;;;;4983144;28;20304;-85
2021/10/02 05:23:50;;;;;;;3.03;2.37;;;14.20;87.50;;;;;;4978839;28;20209;-85
2021/10/02 05:26:17;;;;;;;0.53;0.53;;;14.20;87.60;;;;;;5004339;28;20216;-84
2021/10/02 05:28:44;;;;;;;2.37;1.87;;;14.20;87.60;;;;;;4986365;28;20221;-85
2021/10/02 05:31:11;;;;;;;1.10;0.63;;;14.20;87.50;;;;;;4978799;28;20215;-85
2021/10/02 05:33:38;;;;;;;3.73;2.67;;;14.20;87.50;;;;;;4994091;28;20251;-84
2021/10/02 05:36:05;;;;;;;2.00;1.80;;;14.20;87.50;;;;;;4989827;28;20820;-83
2021/10/02 05:38:32;;;;;;;0.40;0.40;;;14.20;87.60;;;;;;4986193;28;20221;-85
2021/10/02 05:40:59;;;;;;;0.73;0.73;;;14.20;87.50;;;;;;4978426;28;20229;-85
2021/10/02 05:43:26;;;;;;;1.23;0.60;;;14.30;87.60;;;;;;4988902;28;20243;-84
2021/10/02 05:45:53;;;;;;;0.80;0.80;;;14.30;87.50;;;;;;5013566;28;20282;-82
2021/10/02 05:48:20;;;;;;;2.63;1.37;;;14.50;87.40;;;;;;5006198;28;20217;-82
2021/10/02 05:50:47;;;;;;;2.63;1.90;;;14.50;87.20;;;;;;4990261;28;20215;-82
2021/10/02 05:53:14;;;;;;;1.53;1.50;;;14.60;87.00;;;;;;4992151;28;20221;-82
2021/10/02 05:55:42;;;;;;;0.73;0.50;;;14.70;86.80;;;;;;5009797;28;20255;-82
2021/10/02 05:58:09;;;;;;;1.20;1.13;;;14.70;86.60;;;;;;4984799;28;20243;-85
2021/10/02 06:00:36;;;;;;;0.40;0.40;;;14.80;86.60;;;;;;4990069;28;20316;-84
2021/10/02 06:03:03;;;;;;;0.67;0.67;;;14.80;86.40;;;;;;4999405;28;20299;-84
2021/10/02 06:05:30;;;;;;;1.50;1.40;;;14.90;86.50;;;;;;4998207;28;20223;-84
2021/10/02 06:07:57;;;;;;;2.07;1.17;;;15.00;86.40;;;;;;4998160;28;20216;-84
2021/10/02 06:10:25;;;;;;;0.77;0.77;;;15.10;86.10;;;;;;4999079;28;20639;-84
2021/10/02 06:12:54;;;;;;;0.60;0.60;;;15.10;86.00;;;;;;4998604;28;20227;-84
2021/10/02 06:15:24;;;;;;;1.23;0.93;;;15.20;86.10;;;;;;4999040;28;20227;-84
2021/10/02 06:17:53;;;;;;;1.17;1.17;;;15.30;86.10;;;;;;4999475;28;20232;-84
2021/10/02 06:20:21;;;;;;;0.70;0.70;;;15.40;86.10;;;;;;4998665;28;20208;-84
2021/10/02 06:22:48;;;;;;;2.60;2.27;;;15.40;85.90;;;;;;4998728;28;20212;-84
2021/10/02 06:25:16;;;;;;;1.17;1.17;;;15.60;86.00;;;;;;4998792;28;20216;-82
2021/10/02 06:27:44;;;;;;;0.90;0.70;;;15.60;85.90;;;;;;4998995;28;20223;-82
2021/10/02 06:30:12;;;;;;;1.03;1.03;;;15.80;85.70;;;;;;5000217;28;20216;-82
2021/10/02 06:32:39;;;;;;;1.57;1.47;;;15.90;85.50;;;;;;5000209;28;20251;-82
2021/10/02 06:35:06;;;;;;;0.40;0.40;;;16.00;85.40;;;;;;5000614;28;20700;-83
2021/10/02 06:37:33;;;;;;;0.60;0.60;;;16.10;85.20;;;;;;5015732;28;20311;-83
2021/10/02 06:40:01;;;;;;;0.70;0.70;;;16.20;85.20;;;;;;4997431;28;20208;-82
2021/10/02 06:42:29;;;;;;;5.97;3.20;;;16.30;85.00;;;;;;4998533;28;20299;-82
2021/10/02 06:44:57;;;;;;;0.50;0.50;;;16.40;84.80;;;;;;5000067;28;20239;-82
2021/10/02 06:47:24;;;;;;;2.97;2.07;;;16.50;84.40;;;;;;5000021;28;20223;-82
2021/10/02 06:49:57;;;;;;;0.93;0.93;;;16.60;83.90;;;;;;4999507;28;20217;-81
2021/10/02 06:52:26;;;;;;;1.80;1.70;;;16.60;82.60;;;;;;5000719;28;20212;-82
2021/10/02 06:54:56;;;;;;;0.73;0.73;;;16.60;82.00;;;;;;5001671;28;20292;-82
2021/10/02 06:57:23;;;;;;;1.80;1.70;;;16.60;81.90;;;;;;5001937;28;20248;-82
2021/10/02 06:59:51;;;;;;;2.40;2.17;;;16.60;81.70;;;;;;5002653;28;20212;-82
2021/10/02 07:02:18;;;;;;;2.33;1.13;;;16.60;80.70;;;;;;5002407;28;20671;-82
2021/10/02 07:04:49;;;;;;;2.97;1.33;;;16.50;80.60;;;;;;5002958;28;20227;-82
2021/10/02 07:07:17;;;;;;;1.97;1.87;;;16.50;80.80;;;;;;5003918;28;20217;-82
2021/10/02 07:09:45;;;;;;;1.00;0.90;;;16.50;81.00;;;;;;5002461;28;20209;-82
2021/10/02 07:12:12;;;;;;;1.23;1.13;;;16.50;81.30;;;;;;5000661;28;20216;-82
2021/10/02 07:14:40;;;;;;;7.80;1.40;;;16.50;81.40;;;;;;5001715;28;20220;-83
2021/10/02 07:17:08;;;;;;;1.07;1.07;;;16.60;81.30;;;;;;5000995;28;20232;-83
2021/10/02 07:19:35;;;;;;;1.30;0.93;;;16.70;81.20;;;;;;5000978;28;20212;-83
2021/10/02 07:22:02;;;;;;;1.27;1.27;;;16.80;80.80;;;;;;5000408;28;20208;-83
2021/10/02 07:24:29;;;;;;;1.03;1.03;;;17.00;80.70;;;;;;4999970;28;20216;-83
2021/10/02 07:26:57;;;;;;;1.50;1.50;;;17.00;80.40;;;;;;5001775;28;20299;-82
2021/10/02 07:29:24;;;;;;;3.53;3.03;;;17.20;80.30;;;;;;4995810;28;20276;-82
2021/10/02 07:31:51;;;;;;;2.63;1.37;;;17.40;79.80;;;;;;4983132;28;20212;-82
2021/10/02 07:34:19;;;;;;;2.17;2.00;;;17.60;79.30;;;;;;4983597;28;20231;-83
2021/10/02 07:36:46;;;;;;;1.43;1.33;;;17.70;78.80;;;;;;4983883;28;20217;-83
2021/10/02 07:39:13;;;;;;;17.43;1.30;;;17.80;78.40;;;;;;4986088;28;20228;-83
2021/10/02 07:41:46;;;;;;;3.30;1.60;;;18.00;78.30;;;;;;4983824;28;20588;-83
2021/10/02 07:44:15;;;;;;;6.40;2.73;;;18.10;77.40;;;;;;4984454;28;20304;-83
2021/10/02 07:46:52;;;;;;;3.17;1.60;;;18.30;77.20;;;;;;4984278;28;20292;-83
2021/10/02 07:49:22;;;;;;;2.17;2.07;;;18.40;76.80;;;;;;4984707;28;20281;-84
2021/10/02 07:51:59;;;;;;;0.63;0.63;;;18.60;76.50;;;;;;4984587;28;20227;-83
2021/10/02 07:54:26;;;;;;;1.67;1.57;;;18.70;75.90;;;;;;4981448;28;20212;-83
2021/10/02 07:56:56;;;;;;;1.07;0.90;;;18.80;75.80;;;;;;4979724;28;20282;-84
2021/10/02 07:59:23;;;;;;;4.40;3.27;;;18.90;75.80;;;;;;4995746;28;20217;-84
2021/10/02 08:01:50;;;;;;;0.67;0.67;;;19.10;75.60;;;;;;4996247;28;20220;-84
2021/10/02 08:04:18;;;;;;;1.57;1.47;;;19.30;75.30;;;;;;4978238;28;20223;-84
2021/10/02 08:06:48;;;;;;;1.57;1.50;;;19.60;74.60;;;;;;4981566;28;20625;-84
2021/10/02 08:09:15;;;;;;;1.73;1.63;;;19.80;74.10;;;;;;4981179;28;20296;-83
2021/10/02 08:11:43;;;;;;;1.17;1.17;;;20.00;73.40;;;;;;4981939;28;20205;-84
2021/10/02 08:14:11;;;;;;;0.77;0.53;;;20.10;73.50;;;;;;4981827;28;20220;-83
2021/10/02 08:16:39;;;;;;;1.40;1.00;;;20.30;73.20;;;;;;4981401;28;20525;-83
2021/10/02 08:19:07;;;;;;;2.23;2.00;;;20.40;72.70;;;;;;4980564;28;20224;-84
2021/10/02 08:21:38;;;;;;;4.37;2.30;;;20.60;72.30;;;;;;4979370;28;20217;-84
2021/10/02 08:24:06;;;;;;;2.53;1.83;;;20.70;71.90;;;;;;4981325;28;20209;-84
2021/10/02 08:26:33;;;;;;;1.13;1.13;;;20.80;71.40;;;;;;4986753;28;20571;-83
2021/10/02 08:29:02;;;;;;;2.47;1.33;;;20.90;70.80;;;;;;4984975;28;20223;-84
2021/10/02 08:31:31;;;;;;;1.53;1.43;;;20.80;70.20;;;;;;4981561;28;20221;-84
2021/10/02 08:34:18;;;;;;;1.60;1.47;;;20.70;70.40;;;;;;4978370;28;20223;-83
2021/10/02 08:36:45;;;;;;;2.47;0.80;;;20.70;70.60;;;;;;4978488;28;20228;-84
2021/10/02 08:39:13;;;;;;;1.33;1.23;;;20.90;70.80;;;;;;4978021;28;20233;-84
2021/10/02 08:41:41;;;;;;;2.40;0.97;;;21.10;70.70;;;;;;4979952;28;20676;-83
2021/10/02 08:44:10;;;;;;;3.20;2.17;;;21.40;69.80;;;;;;4980761;28;20232;-86
2021/10/02 08:46:38;;;;;;;1.00;1.00;;;21.50;69.10;;;;;;4980778;28;20209;-84
2021/10/02 08:49:31;;;;;;;2.87;1.53;;;21.70;68.90;;;;;;4981396;28;20248;-84
2021/10/02 08:52:00;;;;;;;2.93;1.50;;;21.90;68.50;;;;;;4996557;28;20220;-84
2021/10/02 08:54:28;;;;;;;1.23;1.23;;;22.00;66.70;;;;;;4980769;28;20213;-83
2021/10/02 08:56:56;;;;;;;1.77;1.67;;;21.90;66.20;;;;;;4980348;28;20253;-83
2021/10/02 08:59:23;;;;;;;4.03;2.20;;;21.80;66.70;;;;;;4980443;28;20248;-84
2021/10/02 09:01:50;;;;;;;1.27;1.13;;;21.80;67.20;;;;;;4988040;28;20221;-84
2021/10/02 09:04:18;;;;;;;0.53;0.53;;;21.90;67.40;;;;;;4998330;28;20655;-83
2021/10/02 09:06:45;;;;;;;1.03;1.03;;;21.90;67.20;;;;;;5015220;28;20565;-83
2021/10/02 09:09:12;;;;;;;1.03;1.03;;;22.10;67.10;;;;;;4999148;28;20208;-83
2021/10/02 09:11:39;;;;;;;2.63;1.30;;;22.30;66.90;;;;;;4988342;28;20227;-84
2021/10/02 09:14:08;;;;;;;0.77;0.77;;;22.40;66.40;;;;;;4984140;28;20248;-84
2021/10/02 09:16:35;;;;;;;0.90;0.90;;;22.60;65.50;;;;;;4999828;28;20212;-83
2021/10/02 09:19:02;;;;;;;1.87;0.87;;;22.80;64.60;;;;;;4990625;28;20241;-83
2021/10/02 09:21:40;;;;;;;2.53;1.40;;;22.80;64.30;;;;;;4982358;28;20217;-84
2021/10/02 09:24:23;;;;;;;0.77;0.77;;;22.90;64.50;;;;;;4989700;28;20204;-82
2021/10/02 09:26:51;;;;;;;1.53;1.43;;;23.10;62.90;;;;;;4988433;28;20247;-84
2021/10/02 09:29:32;;;;;;;0.70;0.70;;;23.20;62.90;;;;;;4988177;28;20224;-84
2021/10/02 09:32:01;;;;;;;0.47;0.47;;;23.30;63.10;;;;;;4986314;28;20221;-83
2021/10/02 09:34:28;;;;;;;2.30;1.73;;;23.50;62.70;;;;;;5014800;28;20648;-84
2021/10/02 09:36:55;;;;;;;1.33;1.27;;;23.70;62.00;;;;;;4995243;28;20239;-84
2021/10/02 09:39:40;;;;;;;0.60;0.60;;;23.70;61.20;;;;;;4992335;28;20224;-84
2021/10/02 09:42:19;;;;;;;2.03;1.77;;;23.80;60.50;;;;;;4990940;28;20209;-83
2021/10/02 09:44:48;;;;;;;0.63;0.47;;;23.80;59.80;;;;;;4987221;28;20543;-85
2021/10/02 09:47:17;;;;;;;0.53;0.53;;;23.90;59.50;;;;;;4980762;28;20229;-83
2021/10/02 09:49:46;;;;;;;0.87;0.77;;;24.00;59.00;;;;;;4998989;28;20208;-84
2021/10/02 09:52:35;;;;;;;0.40;0.40;;;24.00;58.70;;;;;;4983289;28;20278;-83
2021/10/02 09:55:19;;;;;;;1.23;1.13;;;24.10;58.10;;;;;;4980758;28;20243;-84
2021/10/02 09:57:51;;;;;;;1.13;1.13;;;24.10;58.20;;;;;;4979467;28;20253;-84
2021/10/02 10:00:24;;;;;;;0.60;0.57;;;24.20;57.10;;;;;;4978543;28;20209;-85
2021/10/02 10:02:52;;;;;;;1.47;1.00;;;24.20;56.90;;;;;;4980368;28;20236;-85
2021/10/02 10:05:20;;;;;;;0.80;0.73;;;24.20;56.00;;;;;;4978151;28;20225;-85
2021/10/02 10:07:58;;;;;;;0.57;0.57;;;24.20;56.70;;;;;;4978918;28;20208;-85
2021/10/02 10:10:30;;;;;;;0.60;0.60;;;24.40;56.50;;;;;;4997451;28;20227;-85
2021/10/02 10:13:02;;;;;;;3.40;1.80;;;24.50;56.50;;;;;;4999241;28;20533;-85
2021/10/02 10:15:35;;;;;;;2.03;0.80;;;24.50;54.60;;;;;;4999530;28;20212;-85
2021/10/02 10:18:03;;;;;;;0.53;0.50;;;24.40;55.10;;;;;;5010728;28;20240;-85
2021/10/02 10:20:50;;;;;;;0.40;0.40;;;24.50;55.20;;;;;;5001050;28;20225;-84
2021/10/02 10:23:42;;;;;;;0.10;0.10;;;24.60;54.30;;;;;;4980999;28;20232;-85
2021/10/02 10:26:14;;;;;;;0.10;0.10;;;24.60;53.60;;;;;;4980116;28;20237;-85
2021/10/02 10:28:49;;;;;;;1.20;1.07;;;24.60;54.00;;;;;;4981756;28;20221;-85
2021/10/02 10:31:26;;;;;;;0.53;0.53;;;24.60;53.60;;;;;;4982789;28;20649;-84
2021/10/02 10:33:56;;;;;;;0.80;0.80;;;24.60;53.50;;;;;;4981789;28;20279;-82
2021/10/02 10:36:31;;;;;;;0.20;0.20;;;24.70;54.20;;;;;;4982686;28;20209;-83
2021/10/02 10:38:58;;;;;;;0.50;0.50;;;24.80;54.20;;;;;;4981960;28;20239;-85
2021/10/02 10:41:28;;;;;;;0.20;0.20;;;24.90;52.30;;;;;;4988527;28;20204;-84
2021/10/02 10:43:55;;;;;;;0.50;0.50;;;24.80;51.60;;;;;;5020679;28;20295;-84
2021/10/02 10:46:23;;;;;;;1.20;0.83;;;24.70;51.80;;;;;;5038058;28;20210;-85
2021/10/02 10:48:51;;;;;;;1.10;0.70;;;24.80;51.60;;;;;;5037116;28;20235;-85
2021/10/02 10:51:20;;;;;;;0.40;0.40;;;24.90;51.70;;;;;;5020725;28;20222;-84
2021/10/02 10:53:51;;;;;;;0.73;0.73;;;25.00;51.70;;;;;;5041436;28;20223;-83
2021/10/02 10:56:39;;;;;;;0.33;0.33;;;25.20;52.10;;;;;;5046976;28;20247;-83
2021/10/02 10:59:06;;;;;;;0.10;0.10;;;25.40;51.60;;;;;;5017118;28;20940;-84
2021/10/02 11:01:39;;;;;;;0.03;0.03;;;25.40;49.30;;;;;;4992562;28;20213;-83
2021/10/02 11:04:37;;;;;;;0.20;0.20;;;25.60;49.10;;;;;;5002044;28;20234;-84
2021/10/02 11:07:06;;;;;;;0.17;0.10;;;25.70;49.00;;;;;;4998099;28;20277;-83
2021/10/02 11:09:43;;;;;;;0.73;0.70;;;25.80;50.10;;;;;;4992076;28;20231;-84
2021/10/02 11:12:14;;;;;;;0.63;0.17;;;25.90;48.80;;;;;;4993877;28;20228;-83
2021/10/02 11:14:49;;;;;;;0.17;0.17;;;25.90;48.40;;;;;;4981983;28;20213;-84
2021/10/02 11:17:34;;;;;;;1.03;0.43;;;26.00;48.20;;;;;;5013163;28;20216;-83
2021/10/02 11:20:32;;;;;;;0.63;0.63;;;25.90;49.20;;;;;;4984802;28;20237;-83
2021/10/02 11:23:36;;;;;;;0.27;0.27;;;25.80;48.90;;;;;;4980403;28;20220;-83
2021/10/02 11:26:10;;;;;;;0.10;0.10;;;25.90;47.70;;;;;;5001302;28;20208;-84
2021/10/02 11:28:38;;;;;;;0.10;0.10;;;25.80;47.60;;;;;;4992588;28;20233;-82
2021/10/02 11:31:15;;;;;;;0.00;0.00;;;25.80;47.10;;;;;;4986109;28;20645;-84
2021/10/02 11:33:49;;;;;;;0.10;0.10;;;25.70;47.20;;;;;;4996755;28;20208;-84
2021/10/02 11:36:29;;;;;;;0.10;0.10;;;25.70;47.80;;;;;;5012421;28;20203;-84
2021/10/02 11:39:11;;;;;;;0.10;0.10;;;25.90;47.20;;;;;;5002406;28;20236;-83
2021/10/02 11:42:06;;;;;;;0.30;0.30;;;25.90;45.90;;;;;;5000053;28;20223;-82
2021/10/02 11:44:36;;;;;;;1.07;0.60;;;25.70;46.20;;;;;;5006425;28;21208;-83
2021/10/02 11:47:26;;;;;;;0.20;0.20;;;25.70;46.50;;;;;;5003864;28;20228;-83
2021/10/02 11:50:12;;;;;;;0.10;0.10;;;25.80;47.20;;;;;;4980261;28;20225;-84
2021/10/02 11:53:00;;;;;;;0.47;0.47;;;26.00;46.50;;;;;;4992146;28;20238;-83
2021/10/02 11:55:33;;;;;;;0.10;0.10;;;26.10;46.80;;;;;;5008634;28;20220;-83
2021/10/02 11:58:09;;;;;;;0.80;0.77;;;26.20;47.00;;;;;;5003953;28;20257;-83
2021/10/02 12:00:44;;;;;;;0.30;0.30;;;26.10;45.50;;;;;;5004113;28;20215;-84
2021/10/02 12:03:13;;;;;;;0.30;0.23;;;26.00;46.60;;;;;;4995559;28;20223;-83
2021/10/02 12:05:45;;;;;;;0.30;0.30;;;26.10;47.20;;;;;;4990546;28;20217;-83
2021/10/02 12:08:13;;;;;;;0.40;0.40;;;26.20;47.40;;;;;;5009669;28;20306;-84
2021/10/02 12:10:55;;;;;;;0.30;0.30;;;26.10;48.10;;;;;;4989025;28;20573;-83
2021/10/02 12:13:38;;;;;;;1.70;0.20;;;26.20;47.80;;;;;;5009424;28;20217;-83
2021/10/02 12:16:05;;;;;;;0.10;0.10;;;26.20;46.60;;;;;;4985369;28;20256;-84
2021/10/02 12:19:08;;;;;;;0.80;0.80;;;26.10;46.80;;;;;;5003633;28;20232;-82
2021/10/02 12:21:43;;;;;;;2.33;0.27;;;26.20;47.20;;;;;;5006220;28;20216;-85
2021/10/02 12:24:26;;;;;;;0.33;0.33;;;26.10;46.40;;;;;;5014694;28;20215;-84
2021/10/02 12:26:57;;;;;;;0.10;0.10;;;25.90;46.90;;;;;;4984429;28;20208;-84
2021/10/02 12:29:28;;;;;;;0.67;0.63;;;25.70;47.40;;;;;;4995491;28;20574;-84
2021/10/02 12:32:01;;;;;;;0.33;0.33;;;25.40;47.90;;;;;;5014658;28;20212;-84
2021/10/02 12:34:51;;;;;;;0.17;0.17;;;25.30;48.50;;;;;;4990831;28;20221;-84
2021/10/02 12:37:29;;;;;;;0.17;0.17;;;25.10;48.90;;;;;;4978554;28;20221;-82
2021/10/02 12:40:09;;;;;;;0.30;0.30;;;25.10;49.20;;;;;;4994463;28;20681;-83
2021/10/02 12:42:54;;;;;;;0.10;0.10;;;25.10;49.30;;;;;;4994028;28;20275;-84
2021/10/02 12:45:27;;;;;;;0.10;0.10;;;25.20;49.20;;;;;;4994675;28;20322;-84
2021/10/02 12:47:58;;;;;;;0.57;0.13;;;25.40;49.10;;;;;;4986234;28;20557;-83
2021/10/02 12:50:37;;;;;;;0.30;0.30;;;25.70;49.00;;;;;;4987634;28;20233;-84
2021/10/02 12:53:04;;;;;;;0.33;0.33;;;25.80;48.80;;;;;;4992428;28;20251;-84
2021/10/02 12:55:32;;;;;;;0.20;0.20;;;25.90;48.90;;;;;;4994436;28;20228;-83
2021/10/02 12:58:00;;;;;;;0.20;0.20;;;25.90;48.50;;;;;;4991104;28;20255;-84
2021/10/02 13:00:30;;;;;;;1.00;0.27;;;25.90;47.80;;;;;;4986191;28;20678;-84
2021/10/02 13:03:01;;;;;;;0.40;0.40;;;25.90;47.60;;;;;;4997973;28;20216;-82
2021/10/02 13:05:34;;;;;;;0.10;0.10;;;25.90;48.10;;;;;;5001960;28;20205;-84
2021/10/02 13:08:07;;;;;;;0.07;0.07;;;25.90;48.10;;;;;;4986323;28;20223;-84
2021/10/02 13:10:37;;;;;;;0.10;0.10;;;25.80;48.30;;;;;;4985535;28;20201;-84
2021/10/02 13:13:11;;;;;;;2.10;0.73;;;25.80;48.40;;;;;;4993288;28;20633;-83
2021/10/02 13:15:40;;;;;;;0.20;0.20;;;25.80;48.20;;;;;;4999660;28;20207;-83
2021/10/02 13:18:13;;;;;;;0.10;0.10;;;25.80;48.40;;;;;;5013989;28;20212;-81
2021/10/02 13:20:40;;;;;;;0.87;0.70;;;25.80;48.60;;;;;;4985263;28;20220;-84
2021/10/02 13:23:15;;;;;;;0.30;0.30;;;25.80;48.90;;;;;;4981724;28;20221;-84
2021/10/02 13:25:54;;;;;;;0.10;0.10;;;25.80;49.20;;;;;;5002087;28;20228;-82
2021/10/02 13:28:46;;;;;;;0.10;0.10;;;25.80;49.80;;;;;;4989427;28;20224;-83
2021/10/02 13:31:21;;;;;;;0.10;0.10;;;25.80;49.90;;;;;;4986955;28;20330;-84
2021/10/02 13:33:53;;;;;;;0.20;0.20;;;25.80;49.90;;;;;;4989405;28;20262;-84
2021/10/02 13:36:32;;;;;;;0.10;0.10;;;25.80;50.00;;;;;;4987293;28;20374;-84
2021/10/02 13:39:12;;;;;;;0.30;0.30;;;25.80;50.20;;;;;;4994513;28;20240;-83
2021/10/02 13:41:43;;;;;;;0.10;0.10;;;25.80;50.30;;;;;;4996286;28;20201;-83
2021/10/02 13:44:10;;;;;;;0.20;0.20;;;25.70;50.40;;;;;;4984209;28;20209;-84
2021/10/02 13:46:40;;;;;;;0.20;0.07;;;25.70;50.70;;;;;;5002479;28;20236;-83
2021/10/02 13:49:10;;;;;;;0.20;0.20;;;25.70;51.00;;;;;;4999012;28;20220;-84
2021/10/02 13:51:38;;;;;;;0.10;0.10;;;25.70;51.10;;;;;;4999379;28;20204;-84
2021/10/02 13:54:06;;;;;;;0.40;0.40;;;25.70;51.10;;;;;;4998792;28;20220;-82
2021/10/02 13:56:38;;;;;;;0.40;0.40;;;25.60;50.90;;;;;;4994729;28;20240;-84
2021/10/02 13:59:07;;;;;;;0.47;0.47;;;25.60;51.30;;;;;;4991011;28;20228;-84
2021/10/02 14:01:35;;;;;;;0.10;0.10;;;25.60;51.40;;;;;;4979334;28;20209;-84
2021/10/02 14:04:03;;;;;;;0.20;0.20;;;25.50;51.70;;;;;;4978974;28;20279;-83
2021/10/02 14:06:32;;;;;;;1.70;0.40;;;25.50;51.80;;;;;;5004311;28;20211;-83